sensor_id;sensor_type;location;lat;lon;timestamp;temperature;humidity
831;DHT22;397;50.564;7.272;2023-07-29T00:00:50;19.50;99.90
831;DHT22;397;50.564;7.272;2023-07-29T00:03:17;19.50;99.90
831;DHT22;397;50.564;7.272;2023-07-29T00:05:45;19.50;99.90
831;DHT22;397;50.564;7.272;2023-07-29T00:08:13;19.50;99.90
831;DHT22;397;50.564;7.272;2023-07-29T00:10:40;19.50;99.90
831;DHT22;397;50.564;7.272;2023-07-29T00:13:08;19.50;99.90
831;DHT22;397;50.564;7.272;2023-07-29T00:15:36;19.50;99.90
831;DHT22;397;50.564;7.272;2023-07-29T00:18:03;19.50;99.90
831;DHT22;397;50.564;7.272;2023-07-29T00:20:31;19.50;99.90
831;DHT22;397;50.564;7.272;2023-07-29T00:22:58;19.50;99.90
831;DHT22;397;50.564;7.272;2023-07-29T00:25:26;19.50;99.90
831;DHT22;397;50.564;7.272;2023-07-29T00:27:55;19.50;99.90
831;DHT22;397;50.564;7.272;2023-07-29T00:30:23;19.50;99.90
831;DHT22;397;50.564;7.272;2023-07-29T00:32:50;19.50;99.90
831;DHT22;397;50.564;7.272;2023-07-29T00:35:18;19.50;99.90
831;DHT22;397;50.564;7.272;2023-07-29T00:37:45;19.50;99.90
831;DHT22;397;50.564;7.272;2023-07-29T00:40:15;19.50;99.90
831;DHT22;397;50.564;7.272;2023-07-29T00:42:43;19.50;99.90
831;DHT22;397;50.564;7.272;2023-07-29T00:45:11;19.50;99.90
831;DHT22;397;50.564;7.272;2023-07-29T00:47:39;19.50;99.90
831;DHT22;397;50.564;7.272;2023-07-29T00:50:07;19.50;99.90
831;DHT22;397;50.564;7.272;2023-07-29T00:52:36;19.50;99.90
831;DHT22;397;50.564;7.272;2023-07-29T00:55:05;19.50;99.90
831;DHT22;397;50.564;7.272;2023-07-29T00:57:33;19.50;99.90
831;DHT22;397;50.564;7.272;2023-07-29T01:00:03;19.60;99.90
831;DHT22;397;50.564;7.272;2023-07-29T01:02:31;19.60;99.90
831;DHT22;397;50.564;7.272;2023-07-29T01:04:59;19.60;99.90
831;DHT22;397;50.564;7.272;2023-07-29T01:10:26;19.60;99.90
831;DHT22;397;50.564;7.272;2023-07-29T01:12:56;19.60;99.90
831;DHT22;397;50.564;7.272;2023-07-29T01:18:11;19.60;99.90
831;DHT22;397;50.564;7.272;2023-07-29T01:20:40;19.60;99.90
831;DHT22;397;50.564;7.272;2023-07-29T01:23:08;19.60;99.90
831;DHT22;397;50.564;7.272;2023-07-29T01:25:35;19.50;99.90
831;DHT22;397;50.564;7.272;2023-07-29T01:28:03;19.50;99.90
831;DHT22;397;50.564;7.272;2023-07-29T01:30:37;19.50;99.90
831;DHT22;397;50.564;7.272;2023-07-29T01:33:12;19.50;99.90
831;DHT22;397;50.564;7.272;2023-07-29T01:35:42;19.50;99.90
831;DHT22;397;50.564;7.272;2023-07-29T01:38:24;19.50;99.90
831;DHT22;397;50.564;7.272;2023-07-29T01:40:49;19.40;99.90
831;DHT22;397;50.564;7.272;2023-07-29T01:43:17;19.40;99.90
831;DHT22;397;50.564;7.272;2023-07-29T01:45:50;19.40;99.90
831;DHT22;397;50.564;7.272;2023-07-29T01:48:17;19.40;99.90
831;DHT22;397;50.564;7.272;2023-07-29T01:50:45;19.40;99.90
831;DHT22;397;50.564;7.272;2023-07-29T01:53:12;19.40;99.90
831;DHT22;397;50.564;7.272;2023-07-29T01:55:41;19.40;99.90
831;DHT22;397;50.564;7.272;2023-07-29T01:58:09;19.50;99.90
831;DHT22;397;50.564;7.272;2023-07-29T02:00:36;19.50;99.90
831;DHT22;397;50.564;7.272;2023-07-29T02:03:04;19.50;99.90
831;DHT22;397;50.564;7.272;2023-07-29T02:05:31;19.50;99.90
831;DHT22;397;50.564;7.272;2023-07-29T02:07:59;19.50;99.90
831;DHT22;397;50.564;7.272;2023-07-29T02:10:26;19.50;99.90
831;DHT22;397;50.564;7.272;2023-07-29T02:12:54;19.40;99.90
831;DHT22;397;50.564;7.272;2023-07-29T02:15:21;19.40;99.90
831;DHT22;397;50.564;7.272;2023-07-29T02:17:50;19.40;99.90
831;DHT22;397;50.564;7.272;2023-07-29T02:20:18;19.40;99.90
831;DHT22;397;50.564;7.272;2023-07-29T02:22:46;19.40;99.90
831;DHT22;397;50.564;7.272;2023-07-29T02:25:15;19.40;99.90
831;DHT22;397;50.564;7.272;2023-07-29T02:27:42;19.40;99.90
831;DHT22;397;50.564;7.272;2023-07-29T02:30:10;19.50;99.90
831;DHT22;397;50.564;7.272;2023-07-29T02:32:39;19.50;99.90
831;DHT22;397;50.564;7.272;2023-07-29T02:35:06;19.40;99.90
831;DHT22;397;50.564;7.272;2023-07-29T02:37:34;19.50;99.90
831;DHT22;397;50.564;7.272;2023-07-29T02:40:01;19.40;99.90
831;DHT22;397;50.564;7.272;2023-07-29T02:42:30;19.40;99.90
831;DHT22;397;50.564;7.272;2023-07-29T02:44:57;19.40;99.90
831;DHT22;397;50.564;7.272;2023-07-29T02:47:25;19.30;99.90
831;DHT22;397;50.564;7.272;2023-07-29T02:49:52;19.30;99.90
831;DHT22;397;50.564;7.272;2023-07-29T02:52:20;19.30;99.90
831;DHT22;397;50.564;7.272;2023-07-29T02:54:48;19.20;99.90
831;DHT22;397;50.564;7.272;2023-07-29T02:57:15;19.20;99.90
831;DHT22;397;50.564;7.272;2023-07-29T02:59:43;19.10;99.90
831;DHT22;397;50.564;7.272;2023-07-29T03:02:11;19.10;99.90
831;DHT22;397;50.564;7.272;2023-07-29T03:04:39;19.10;99.90
831;DHT22;397;50.564;7.272;2023-07-29T03:07:06;19.10;99.90
831;DHT22;397;50.564;7.272;2023-07-29T03:09:34;19.10;99.90
831;DHT22;397;50.564;7.272;2023-07-29T03:12:01;19.10;99.90
831;DHT22;397;50.564;7.272;2023-07-29T03:14:29;19.10;99.90
831;DHT22;397;50.564;7.272;2023-07-29T03:16:57;19.10;99.90
831;DHT22;397;50.564;7.272;2023-07-29T03:19:25;19.00;99.90
831;DHT22;397;50.564;7.272;2023-07-29T03:21:53;19.10;99.90
831;DHT22;397;50.564;7.272;2023-07-29T03:24:20;19.10;99.90
831;DHT22;397;50.564;7.272;2023-07-29T03:26:48;19.10;99.90
831;DHT22;397;50.564;7.272;2023-07-29T03:29:16;19.10;99.90
831;DHT22;397;50.564;7.272;2023-07-29T03:31:43;19.10;99.90
831;DHT22;397;50.564;7.272;2023-07-29T03:34:11;19.10;99.90
831;DHT22;397;50.564;7.272;2023-07-29T03:36:39;19.10;99.90
831;DHT22;397;50.564;7.272;2023-07-29T03:39:07;19.10;99.90
831;DHT22;397;50.564;7.272;2023-07-29T03:41:34;19.10;99.90
831;DHT22;397;50.564;7.272;2023-07-29T03:44:02;19.10;99.90
831;DHT22;397;50.564;7.272;2023-07-29T03:46:30;19.10;99.90
831;DHT22;397;50.564;7.272;2023-07-29T03:48:58;19.10;99.90
831;DHT22;397;50.564;7.272;2023-07-29T03:51:25;19.10;99.90
831;DHT22;397;50.564;7.272;2023-07-29T03:53:53;19.10;99.90
831;DHT22;397;50.564;7.272;2023-07-29T03:56:20;19.10;99.90
831;DHT22;397;50.564;7.272;2023-07-29T03:58:48;19.20;99.90
831;DHT22;397;50.564;7.272;2023-07-29T04:01:15;19.10;99.90
831;DHT22;397;50.564;7.272;2023-07-29T04:03:44;19.10;99.90
831;DHT22;397;50.564;7.272;2023-07-29T04:06:12;19.10;99.90
831;DHT22;397;50.564;7.272;2023-07-29T04:08:40;19.10;99.90
831;DHT22;397;50.564;7.272;2023-07-29T04:11:08;19.10;99.90
831;DHT22;397;50.564;7.272;2023-07-29T04:13:35;19.00;99.90
831;DHT22;397;50.564;7.272;2023-07-29T04:16:04;19.00;99.90
831;DHT22;397;50.564;7.272;2023-07-29T04:18:32;19.10;99.90
831;DHT22;397;50.564;7.272;2023-07-29T04:21:00;19.10;99.90
831;DHT22;397;50.564;7.272;2023-07-29T04:23:27;19.20;99.90
831;DHT22;397;50.564;7.272;2023-07-29T04:25:55;19.20;99.90
831;DHT22;397;50.564;7.272;2023-07-29T04:28:22;19.20;99.90
831;DHT22;397;50.564;7.272;2023-07-29T04:30:49;19.20;99.90
831;DHT22;397;50.564;7.272;2023-07-29T04:33:17;19.30;99.90
831;DHT22;397;50.564;7.272;2023-07-29T04:35:45;19.30;99.90
831;DHT22;397;50.564;7.272;2023-07-29T04:38:13;19.30;99.90
831;DHT22;397;50.564;7.272;2023-07-29T04:40:40;19.30;99.90
831;DHT22;397;50.564;7.272;2023-07-29T04:43:08;19.30;99.90
831;DHT22;397;50.564;7.272;2023-07-29T04:45:35;19.20;99.90
831;DHT22;397;50.564;7.272;2023-07-29T04:48:03;19.20;99.90
831;DHT22;397;50.564;7.272;2023-07-29T04:50:30;19.20;99.90
831;DHT22;397;50.564;7.272;2023-07-29T04:52:58;19.20;99.90
831;DHT22;397;50.564;7.272;2023-07-29T04:55:25;19.30;99.90
831;DHT22;397;50.564;7.272;2023-07-29T04:57:53;19.30;99.90
831;DHT22;397;50.564;7.272;2023-07-29T05:00:21;19.30;99.90
831;DHT22;397;50.564;7.272;2023-07-29T05:02:49;19.20;99.90
831;DHT22;397;50.564;7.272;2023-07-29T05:05:16;19.10;99.90
831;DHT22;397;50.564;7.272;2023-07-29T05:07:44;19.00;99.90
831;DHT22;397;50.564;7.272;2023-07-29T05:10:11;19.00;99.90
831;DHT22;397;50.564;7.272;2023-07-29T05:12:39;19.10;99.90
831;DHT22;397;50.564;7.272;2023-07-29T05:15:07;19.10;99.90
831;DHT22;397;50.564;7.272;2023-07-29T05:17:35;19.10;99.90
831;DHT22;397;50.564;7.272;2023-07-29T05:20:02;19.10;99.90
831;DHT22;397;50.564;7.272;2023-07-29T05:22:30;19.00;99.90
831;DHT22;397;50.564;7.272;2023-07-29T05:24:58;19.00;99.90
831;DHT22;397;50.564;7.272;2023-07-29T05:27:25;19.00;99.90
831;DHT22;397;50.564;7.272;2023-07-29T05:29:53;19.00;99.90
831;DHT22;397;50.564;7.272;2023-07-29T05:32:20;19.00;99.90
831;DHT22;397;50.564;7.272;2023-07-29T05:34:48;19.00;99.90
831;DHT22;397;50.564;7.272;2023-07-29T05:37:15;19.00;99.90
831;DHT22;397;50.564;7.272;2023-07-29T05:39:43;19.00;99.90
831;DHT22;397;50.564;7.272;2023-07-29T05:42:10;19.10;99.90
831;DHT22;397;50.564;7.272;2023-07-29T05:44:38;19.10;99.90
831;DHT22;397;50.564;7.272;2023-07-29T05:47:05;19.20;99.90
831;DHT22;397;50.564;7.272;2023-07-29T05:49:33;19.20;99.90
831;DHT22;397;50.564;7.272;2023-07-29T05:52:01;19.20;99.90
831;DHT22;397;50.564;7.272;2023-07-29T05:54:28;19.10;99.90
831;DHT22;397;50.564;7.272;2023-07-29T05:56:56;19.10;99.90
831;DHT22;397;50.564;7.272;2023-07-29T05:59:23;19.10;99.90
831;DHT22;397;50.564;7.272;2023-07-29T06:01:51;19.00;99.90
831;DHT22;397;50.564;7.272;2023-07-29T06:04:18;19.10;99.90
831;DHT22;397;50.564;7.272;2023-07-29T06:06:46;19.10;99.90
831;DHT22;397;50.564;7.272;2023-07-29T06:09:14;19.30;99.90
831;DHT22;397;50.564;7.272;2023-07-29T06:11:41;19.20;99.90
831;DHT22;397;50.564;7.272;2023-07-29T06:14:09;19.30;99.90
831;DHT22;397;50.564;7.272;2023-07-29T06:16:36;19.40;99.90
831;DHT22;397;50.564;7.272;2023-07-29T06:19:04;19.40;99.90
831;DHT22;397;50.564;7.272;2023-07-29T06:21:31;19.50;99.90
831;DHT22;397;50.564;7.272;2023-07-29T06:23:59;19.50;99.90
831;DHT22;397;50.564;7.272;2023-07-29T06:26:27;19.50;99.90
831;DHT22;397;50.564;7.272;2023-07-29T06:28:54;19.60;99.90
831;DHT22;397;50.564;7.272;2023-07-29T06:31:22;19.50;99.90
831;DHT22;397;50.564;7.272;2023-07-29T06:33:50;19.60;99.90
831;DHT22;397;50.564;7.272;2023-07-29T06:36:17;19.60;99.90
831;DHT22;397;50.564;7.272;2023-07-29T06:38:45;19.70;99.90
831;DHT22;397;50.564;7.272;2023-07-29T06:41:12;19.70;99.90
831;DHT22;397;50.564;7.272;2023-07-29T06:43:40;19.70;99.90
831;DHT22;397;50.564;7.272;2023-07-29T06:46:07;19.80;99.90
831;DHT22;397;50.564;7.272;2023-07-29T06:48:36;19.60;99.90
831;DHT22;397;50.564;7.272;2023-07-29T06:51:04;19.50;99.90
831;DHT22;397;50.564;7.272;2023-07-29T06:53:31;19.50;99.90
831;DHT22;397;50.564;7.272;2023-07-29T06:55:59;19.40;99.90
831;DHT22;397;50.564;7.272;2023-07-29T06:58:26;19.60;99.90
831;DHT22;397;50.564;7.272;2023-07-29T07:00:54;19.80;99.90
831;DHT22;397;50.564;7.272;2023-07-29T07:03:21;19.90;99.90
831;DHT22;397;50.564;7.272;2023-07-29T07:05:49;19.90;99.90
831;DHT22;397;50.564;7.272;2023-07-29T07:08:17;20.10;99.90
831;DHT22;397;50.564;7.272;2023-07-29T07:10:46;20.40;99.90
831;DHT22;397;50.564;7.272;2023-07-29T07:13:14;20.40;99.90
831;DHT22;397;50.564;7.272;2023-07-29T07:15:41;20.80;99.90
831;DHT22;397;50.564;7.272;2023-07-29T07:18:09;21.30;99.90
831;DHT22;397;50.564;7.272;2023-07-29T07:20:36;21.50;99.90
831;DHT22;397;50.564;7.272;2023-07-29T07:23:04;21.70;99.90
831;DHT22;397;50.564;7.272;2023-07-29T07:25:33;22.20;99.90
831;DHT22;397;50.564;7.272;2023-07-29T07:28:00;22.50;99.90
831;DHT22;397;50.564;7.272;2023-07-29T07:30:28;22.30;99.90
831;DHT22;397;50.564;7.272;2023-07-29T07:32:55;22.40;99.90
831;DHT22;397;50.564;7.272;2023-07-29T07:35:23;22.10;99.90
831;DHT22;397;50.564;7.272;2023-07-29T07:37:50;22.20;99.90
831;DHT22;397;50.564;7.272;2023-07-29T07:40:18;22.40;99.90
831;DHT22;397;50.564;7.272;2023-07-29T07:42:46;22.70;99.90
831;DHT22;397;50.564;7.272;2023-07-29T07:45:13;23.00;99.90
831;DHT22;397;50.564;7.272;2023-07-29T07:47:44;23.20;99.90
831;DHT22;397;50.564;7.272;2023-07-29T07:50:11;23.00;99.90
831;DHT22;397;50.564;7.272;2023-07-29T07:52:40;22.50;99.90
831;DHT22;397;50.564;7.272;2023-07-29T07:55:08;22.40;99.90
831;DHT22;397;50.564;7.272;2023-07-29T07:57:36;22.00;99.90
831;DHT22;397;50.564;7.272;2023-07-29T08:00:04;21.90;99.90
831;DHT22;397;50.564;7.272;2023-07-29T08:02:32;22.20;99.90
831;DHT22;397;50.564;7.272;2023-07-29T08:05:00;22.40;99.90
831;DHT22;397;50.564;7.272;2023-07-29T08:07:27;22.80;99.90
831;DHT22;397;50.564;7.272;2023-07-29T08:09:55;22.70;99.90
831;DHT22;397;50.564;7.272;2023-07-29T08:12:23;22.70;99.90
831;DHT22;397;50.564;7.272;2023-07-29T08:14:50;22.50;99.90
831;DHT22;397;50.564;7.272;2023-07-29T08:17:18;22.40;99.90
831;DHT22;397;50.564;7.272;2023-07-29T08:19:45;22.60;99.90
831;DHT22;397;50.564;7.272;2023-07-29T08:22:13;22.60;99.90
831;DHT22;397;50.564;7.272;2023-07-29T08:24:40;22.30;99.90
831;DHT22;397;50.564;7.272;2023-07-29T08:27:08;22.20;99.90
831;DHT22;397;50.564;7.272;2023-07-29T08:29:35;22.30;99.90
831;DHT22;397;50.564;7.272;2023-07-29T08:32:03;22.10;99.90
831;DHT22;397;50.564;7.272;2023-07-29T08:34:31;22.00;99.90
831;DHT22;397;50.564;7.272;2023-07-29T08:36:58;21.90;99.90
831;DHT22;397;50.564;7.272;2023-07-29T08:39:26;21.90;99.90
831;DHT22;397;50.564;7.272;2023-07-29T08:42:01;22.00;99.90
831;DHT22;397;50.564;7.272;2023-07-29T08:44:37;22.00;99.90
831;DHT22;397;50.564;7.272;2023-07-29T08:47:05;22.10;99.90
831;DHT22;397;50.564;7.272;2023-07-29T08:49:33;22.10;99.90
831;DHT22;397;50.564;7.272;2023-07-29T08:52:01;22.00;99.90
831;DHT22;397;50.564;7.272;2023-07-29T08:54:29;21.90;99.90
831;DHT22;397;50.564;7.272;2023-07-29T08:56:57;21.60;99.90
831;DHT22;397;50.564;7.272;2023-07-29T08:59:27;21.60;99.90
831;DHT22;397;50.564;7.272;2023-07-29T09:01:56;21.60;99.90
831;DHT22;397;50.564;7.272;2023-07-29T09:04:24;21.70;99.90
831;DHT22;397;50.564;7.272;2023-07-29T09:06:54;21.60;99.90
831;DHT22;397;50.564;7.272;2023-07-29T09:09:23;21.60;99.90
831;DHT22;397;50.564;7.272;2023-07-29T09:11:50;21.50;99.90
831;DHT22;397;50.564;7.272;2023-07-29T09:14:18;21.40;99.90
831;DHT22;397;50.564;7.272;2023-07-29T09:16:46;21.40;99.90
831;DHT22;397;50.564;7.272;2023-07-29T09:19:13;21.30;99.90
831;DHT22;397;50.564;7.272;2023-07-29T09:21:41;21.40;99.90
831;DHT22;397;50.564;7.272;2023-07-29T09:24:09;21.40;99.90
831;DHT22;397;50.564;7.272;2023-07-29T09:26:37;21.20;99.90
831;DHT22;397;50.564;7.272;2023-07-29T09:29:05;21.20;99.90
831;DHT22;397;50.564;7.272;2023-07-29T09:31:33;21.20;99.90
831;DHT22;397;50.564;7.272;2023-07-29T09:34:02;21.40;99.90
831;DHT22;397;50.564;7.272;2023-07-29T09:36:33;21.70;99.90
831;DHT22;397;50.564;7.272;2023-07-29T09:39:02;21.70;99.90
831;DHT22;397;50.564;7.272;2023-07-29T09:41:30;21.70;99.90
831;DHT22;397;50.564;7.272;2023-07-29T09:44:04;21.60;99.90
831;DHT22;397;50.564;7.272;2023-07-29T09:46:34;21.50;99.90
831;DHT22;397;50.564;7.272;2023-07-29T09:49:04;21.30;99.90
831;DHT22;397;50.564;7.272;2023-07-29T09:51:36;21.30;99.90
831;DHT22;397;50.564;7.272;2023-07-29T09:54:02;21.50;99.90
831;DHT22;397;50.564;7.272;2023-07-29T09:56:31;21.60;99.90
831;DHT22;397;50.564;7.272;2023-07-29T09:58:58;21.90;99.90
831;DHT22;397;50.564;7.272;2023-07-29T10:01:26;21.80;99.90
831;DHT22;397;50.564;7.272;2023-07-29T10:03:54;21.80;99.90
831;DHT22;397;50.564;7.272;2023-07-29T10:06:23;21.80;99.90
831;DHT22;397;50.564;7.272;2023-07-29T10:08:52;21.70;99.90
831;DHT22;397;50.564;7.272;2023-07-29T10:11:21;21.70;99.90
831;DHT22;397;50.564;7.272;2023-07-29T10:13:49;21.60;99.90
831;DHT22;397;50.564;7.272;2023-07-29T10:16:18;21.90;99.90
831;DHT22;397;50.564;7.272;2023-07-29T10:18:47;22.20;99.90
831;DHT22;397;50.564;7.272;2023-07-29T10:21:15;22.30;99.90
831;DHT22;397;50.564;7.272;2023-07-29T10:23:46;22.60;99.90
831;DHT22;397;50.564;7.272;2023-07-29T10:26:17;23.00;99.90
831;DHT22;397;50.564;7.272;2023-07-29T10:28:48;23.10;99.90
831;DHT22;397;50.564;7.272;2023-07-29T10:31:17;23.20;99.90
831;DHT22;397;50.564;7.272;2023-07-29T10:33:46;22.80;99.90
831;DHT22;397;50.564;7.272;2023-07-29T10:36:14;22.70;99.90
831;DHT22;397;50.564;7.272;2023-07-29T10:38:41;22.80;99.90
831;DHT22;397;50.564;7.272;2023-07-29T10:41:09;23.10;99.90
831;DHT22;397;50.564;7.272;2023-07-29T10:43:37;23.10;99.90
831;DHT22;397;50.564;7.272;2023-07-29T10:46:24;23.00;99.90
831;DHT22;397;50.564;7.272;2023-07-29T10:48:54;23.20;99.90
831;DHT22;397;50.564;7.272;2023-07-29T10:51:37;23.40;99.90
831;DHT22;397;50.564;7.272;2023-07-29T10:54:13;23.30;99.90
831;DHT22;397;50.564;7.272;2023-07-29T10:56:46;23.40;99.90
831;DHT22;397;50.564;7.272;2023-07-29T11:01:51;23.40;99.90
831;DHT22;397;50.564;7.272;2023-07-29T11:04:27;23.40;99.90
831;DHT22;397;50.564;7.272;2023-07-29T11:09:57;23.50;99.90
831;DHT22;397;50.564;7.272;2023-07-29T11:15:24;23.50;99.90
831;DHT22;397;50.564;7.272;2023-07-29T11:17:54;23.00;99.90
831;DHT22;397;50.564;7.272;2023-07-29T11:20:31;22.90;99.90
831;DHT22;397;50.564;7.272;2023-07-29T11:23:00;22.90;99.90
831;DHT22;397;50.564;7.272;2023-07-29T11:25:29;22.90;99.90
831;DHT22;397;50.564;7.272;2023-07-29T11:27:58;22.80;99.90
831;DHT22;397;50.564;7.272;2023-07-29T11:30:26;22.70;99.90
831;DHT22;397;50.564;7.272;2023-07-29T11:32:57;22.60;99.90
831;DHT22;397;50.564;7.272;2023-07-29T11:35:25;22.40;99.90
831;DHT22;397;50.564;7.272;2023-07-29T11:37:54;22.50;99.90
831;DHT22;397;50.564;7.272;2023-07-29T11:40:25;22.40;99.90
831;DHT22;397;50.564;7.272;2023-07-29T11:42:54;22.50;99.90
831;DHT22;397;50.564;7.272;2023-07-29T11:45:22;22.30;99.90
831;DHT22;397;50.564;7.272;2023-07-29T11:47:50;22.20;99.90
831;DHT22;397;50.564;7.272;2023-07-29T11:50:17;22.20;99.90
831;DHT22;397;50.564;7.272;2023-07-29T11:52:46;22.30;99.90
831;DHT22;397;50.564;7.272;2023-07-29T11:55:15;22.50;99.90
831;DHT22;397;50.564;7.272;2023-07-29T11:57:43;22.00;99.90
831;DHT22;397;50.564;7.272;2023-07-29T12:00:12;21.90;99.90
831;DHT22;397;50.564;7.272;2023-07-29T12:02:42;22.00;99.90
831;DHT22;397;50.564;7.272;2023-07-29T12:05:12;22.20;99.90
831;DHT22;397;50.564;7.272;2023-07-29T12:07:41;22.10;99.90
831;DHT22;397;50.564;7.272;2023-07-29T12:10:10;21.30;99.90
831;DHT22;397;50.564;7.272;2023-07-29T12:12:48;21.10;99.90
831;DHT22;397;50.564;7.272;2023-07-29T12:15:31;21.00;99.90
831;DHT22;397;50.564;7.272;2023-07-29T12:18:00;21.30;99.90
831;DHT22;397;50.564;7.272;2023-07-29T12:20:30;21.40;99.90
831;DHT22;397;50.564;7.272;2023-07-29T12:22:59;21.40;99.90
831;DHT22;397;50.564;7.272;2023-07-29T12:25:29;21.50;99.90
831;DHT22;397;50.564;7.272;2023-07-29T12:28:01;21.60;99.90
831;DHT22;397;50.564;7.272;2023-07-29T12:30:26;21.50;99.90
831;DHT22;397;50.564;7.272;2023-07-29T12:32:54;21.50;99.90
831;DHT22;397;50.564;7.272;2023-07-29T12:35:22;21.50;99.90
831;DHT22;397;50.564;7.272;2023-07-29T12:37:59;21.50;99.90
831;DHT22;397;50.564;7.272;2023-07-29T12:40:27;21.60;99.90
831;DHT22;397;50.564;7.272;2023-07-29T12:42:55;21.60;99.90
831;DHT22;397;50.564;7.272;2023-07-29T12:45:23;21.60;99.90
831;DHT22;397;50.564;7.272;2023-07-29T12:47:53;21.70;99.90
831;DHT22;397;50.564;7.272;2023-07-29T12:50:20;21.70;99.90
831;DHT22;397;50.564;7.272;2023-07-29T12:52:48;21.90;99.90
831;DHT22;397;50.564;7.272;2023-07-29T12:55:15;22.30;99.90
831;DHT22;397;50.564;7.272;2023-07-29T12:57:43;22.50;99.90
831;DHT22;397;50.564;7.272;2023-07-29T13:00:11;22.20;99.90
831;DHT22;397;50.564;7.272;2023-07-29T13:02:39;22.10;99.90
831;DHT22;397;50.564;7.272;2023-07-29T13:05:09;22.10;99.90
831;DHT22;397;50.564;7.272;2023-07-29T13:07:41;22.10;99.90
831;DHT22;397;50.564;7.272;2023-07-29T13:10:09;22.00;99.90
831;DHT22;397;50.564;7.272;2023-07-29T13:12:37;22.10;99.90
831;DHT22;397;50.564;7.272;2023-07-29T13:15:06;22.20;99.90
831;DHT22;397;50.564;7.272;2023-07-29T13:17:34;22.30;99.90
831;DHT22;397;50.564;7.272;2023-07-29T13:20:02;22.50;99.90
831;DHT22;397;50.564;7.272;2023-07-29T13:22:30;22.50;99.90
831;DHT22;397;50.564;7.272;2023-07-29T13:25:00;22.50;99.90
831;DHT22;397;50.564;7.272;2023-07-29T13:27:28;22.70;99.90
831;DHT22;397;50.564;7.272;2023-07-29T13:29:56;22.90;99.90
831;DHT22;397;50.564;7.272;2023-07-29T13:35:15;23.20;99.90
831;DHT22;397;50.564;7.272;2023-07-29T13:37:42;23.20;99.90
831;DHT22;397;50.564;7.272;2023-07-29T13:40:10;23.40;99.90
831;DHT22;397;50.564;7.272;2023-07-29T13:42:37;23.30;99.90
831;DHT22;397;50.564;7.272;2023-07-29T13:45:05;23.30;99.90
831;DHT22;397;50.564;7.272;2023-07-29T13:47:33;23.30;99.90
831;DHT22;397;50.564;7.272;2023-07-29T13:50:01;23.40;99.90
831;DHT22;397;50.564;7.272;2023-07-29T13:52:29;23.40;99.90
831;DHT22;397;50.564;7.272;2023-07-29T13:54:56;23.40;99.90
831;DHT22;397;50.564;7.272;2023-07-29T13:57:24;23.30;99.90
831;DHT22;397;50.564;7.272;2023-07-29T13:59:51;23.30;99.90
831;DHT22;397;50.564;7.272;2023-07-29T14:02:19;23.10;99.90
831;DHT22;397;50.564;7.272;2023-07-29T14:04:46;23.10;99.90
831;DHT22;397;50.564;7.272;2023-07-29T14:07:14;23.10;99.90
831;DHT22;397;50.564;7.272;2023-07-29T14:09:41;23.30;99.90
831;DHT22;397;50.564;7.272;2023-07-29T14:12:09;23.50;99.90
831;DHT22;397;50.564;7.272;2023-07-29T14:14:41;23.50;99.90
831;DHT22;397;50.564;7.272;2023-07-29T14:17:09;23.50;99.90
831;DHT22;397;50.564;7.272;2023-07-29T14:19:39;23.20;99.90
831;DHT22;397;50.564;7.272;2023-07-29T14:22:07;23.30;99.90
831;DHT22;397;50.564;7.272;2023-07-29T14:24:34;23.50;99.90
831;DHT22;397;50.564;7.272;2023-07-29T14:27:02;23.60;99.90
831;DHT22;397;50.564;7.272;2023-07-29T14:29:30;23.60;99.90
831;DHT22;397;50.564;7.272;2023-07-29T14:31:58;23.80;99.90
831;DHT22;397;50.564;7.272;2023-07-29T14:34:25;23.90;99.90
831;DHT22;397;50.564;7.272;2023-07-29T14:36:53;24.00;99.90
831;DHT22;397;50.564;7.272;2023-07-29T14:39:20;24.00;99.90
831;DHT22;397;50.564;7.272;2023-07-29T14:41:48;24.00;99.90
831;DHT22;397;50.564;7.272;2023-07-29T14:44:15;24.00;99.90
831;DHT22;397;50.564;7.272;2023-07-29T14:46:43;24.00;99.90
831;DHT22;397;50.564;7.272;2023-07-29T14:49:10;23.80;99.90
831;DHT22;397;50.564;7.272;2023-07-29T14:51:38;23.80;99.90
831;DHT22;397;50.564;7.272;2023-07-29T14:54:06;23.80;99.90
831;DHT22;397;50.564;7.272;2023-07-29T14:56:33;23.60;99.90
831;DHT22;397;50.564;7.272;2023-07-29T14:59:01;23.80;99.90
831;DHT22;397;50.564;7.272;2023-07-29T15:01:28;23.90;99.90
831;DHT22;397;50.564;7.272;2023-07-29T15:03:56;24.10;99.90
831;DHT22;397;50.564;7.272;2023-07-29T15:06:23;23.90;99.90
831;DHT22;397;50.564;7.272;2023-07-29T15:08:51;23.60;99.90
831;DHT22;397;50.564;7.272;2023-07-29T15:11:18;23.70;99.90
831;DHT22;397;50.564;7.272;2023-07-29T15:13:46;23.70;99.90
831;DHT22;397;50.564;7.272;2023-07-29T15:16:13;23.90;99.90
831;DHT22;397;50.564;7.272;2023-07-29T15:18:41;23.80;99.90
831;DHT22;397;50.564;7.272;2023-07-29T15:21:08;23.60;99.90
831;DHT22;397;50.564;7.272;2023-07-29T15:23:36;23.60;99.90
831;DHT22;397;50.564;7.272;2023-07-29T15:26:03;23.60;99.90
831;DHT22;397;50.564;7.272;2023-07-29T15:28:31;23.80;99.90
831;DHT22;397;50.564;7.272;2023-07-29T15:30:58;23.80;99.90
831;DHT22;397;50.564;7.272;2023-07-29T15:33:26;23.80;99.90
831;DHT22;397;50.564;7.272;2023-07-29T15:35:53;23.80;99.90
831;DHT22;397;50.564;7.272;2023-07-29T15:38:21;23.80;99.90
831;DHT22;397;50.564;7.272;2023-07-29T15:40:49;23.80;99.90
831;DHT22;397;50.564;7.272;2023-07-29T15:43:18;23.90;99.90
831;DHT22;397;50.564;7.272;2023-07-29T15:45:45;24.10;99.90
831;DHT22;397;50.564;7.272;2023-07-29T15:48:13;24.00;99.90
831;DHT22;397;50.564;7.272;2023-07-29T15:50:41;24.00;99.90
831;DHT22;397;50.564;7.272;2023-07-29T15:53:08;23.80;99.90
831;DHT22;397;50.564;7.272;2023-07-29T15:55:36;23.60;99.90
831;DHT22;397;50.564;7.272;2023-07-29T15:58:03;23.60;99.90
831;DHT22;397;50.564;7.272;2023-07-29T16:00:31;23.70;99.90
831;DHT22;397;50.564;7.272;2023-07-29T16:02:58;23.50;99.90
831;DHT22;397;50.564;7.272;2023-07-29T16:05:26;23.50;99.90
831;DHT22;397;50.564;7.272;2023-07-29T16:07:53;23.50;99.90
831;DHT22;397;50.564;7.272;2023-07-29T16:10:23;23.40;99.90
831;DHT22;397;50.564;7.272;2023-07-29T16:12:50;23.40;99.90
831;DHT22;397;50.564;7.272;2023-07-29T16:15:18;23.20;99.90
831;DHT22;397;50.564;7.272;2023-07-29T16:17:45;23.00;99.90
831;DHT22;397;50.564;7.272;2023-07-29T16:20:14;22.70;99.90
831;DHT22;397;50.564;7.272;2023-07-29T16:22:42;22.60;99.90
831;DHT22;397;50.564;7.272;2023-07-29T16:25:09;22.50;99.90
831;DHT22;397;50.564;7.272;2023-07-29T16:27:37;22.60;99.90
831;DHT22;397;50.564;7.272;2023-07-29T16:30:06;22.30;99.90
831;DHT22;397;50.564;7.272;2023-07-29T16:32:33;22.20;99.90
831;DHT22;397;50.564;7.272;2023-07-29T16:35:01;22.10;99.90
831;DHT22;397;50.564;7.272;2023-07-29T16:37:29;22.10;99.90
831;DHT22;397;50.564;7.272;2023-07-29T16:39:56;22.00;99.90
831;DHT22;397;50.564;7.272;2023-07-29T16:42:24;21.90;99.90
831;DHT22;397;50.564;7.272;2023-07-29T16:44:52;22.00;99.90
831;DHT22;397;50.564;7.272;2023-07-29T16:47:19;21.80;99.90
831;DHT22;397;50.564;7.272;2023-07-29T16:49:47;21.60;99.90
831;DHT22;397;50.564;7.272;2023-07-29T16:52:14;21.30;99.90
831;DHT22;397;50.564;7.272;2023-07-29T16:54:42;21.20;99.90
831;DHT22;397;50.564;7.272;2023-07-29T16:57:09;21.30;99.90